createdAt,value
2023-03-22T00:02:18.806Z,9.71
2023-03-22T00:04:47.030Z,9.70
2023-03-22T00:07:15.538Z,9.70
2023-03-22T00:09:44.200Z,9.70
2023-03-22T00:12:12.474Z,9.69
2023-03-22T00:14:41.569Z,9.67
2023-03-22T00:17:09.848Z,9.63
2023-03-22T00:19:38.534Z,9.59
2023-03-22T00:22:07.116Z,9.54
2023-03-22T00:24:35.288Z,9.48
2023-03-22T00:27:03.888Z,9.43
2023-03-22T00:29:31.923Z,9.39
2023-03-22T00:32:00.372Z,9.34
2023-03-22T00:34:33.294Z,9.29
2023-03-22T00:37:01.592Z,9.24
2023-03-22T00:39:30.484Z,9.16
2023-03-22T00:41:58.571Z,9.12
2023-03-22T00:44:27.367Z,9.11
2023-03-22T00:46:55.644Z,9.12
2023-03-22T00:49:25.743Z,9.13
2023-03-22T00:51:54.123Z,9.12
2023-03-22T00:54:22.915Z,9.12
2023-03-22T00:56:51.198Z,9.13
2023-03-22T00:59:19.678Z,9.12
2023-03-22T01:01:47.848Z,9.10
2023-03-22T01:04:18.319Z,9.08
2023-03-22T01:06:47.411Z,9.09
2023-03-22T01:09:16.054Z,9.09
2023-03-22T01:11:46.279Z,9.10
2023-03-22T01:14:14.677Z,9.07
2023-03-22T01:16:43.383Z,9.08
2023-03-22T01:19:11.820Z,9.09
2023-03-22T01:21:40.614Z,9.11
2023-03-22T01:24:08.986Z,9.09
2023-03-22T01:26:37.877Z,9.05
2023-03-22T01:29:06.254Z,9.03
2023-03-22T01:31:35.357Z,9.00
2023-03-22T01:34:04.142Z,8.98
2023-03-22T01:36:32.925Z,8.96
2023-03-22T01:39:01.106Z,8.94
2023-03-22T01:41:34.883Z,8.94
2023-03-22T01:44:13.534Z,8.93
2023-03-22T01:46:47.780Z,8.93
2023-03-22T01:49:18.892Z,8.93
2023-03-22T01:51:50.839Z,8.93
2023-03-22T01:54:34.860Z,8.93
2023-03-22T01:57:06.062Z,8.94
2023-03-22T01:59:41.361Z,8.93
2023-03-22T02:02:36.816Z,8.92
2023-03-22T02:05:14.600Z,8.91
2023-03-22T02:07:43.695Z,8.90
2023-03-22T02:10:14.229Z,8.89
2023-03-22T02:13:30.864Z,8.87
2023-03-22T02:16:42.838Z,8.82
2023-03-22T02:20:11.221Z,8.79
2023-03-22T02:23:18.412Z,8.75
2023-03-22T02:25:58.981Z,8.72
2023-03-22T02:28:45.378Z,8.70
2023-03-22T02:31:24.857Z,8.68
2023-03-22T02:33:56.269Z,8.68
2023-03-22T02:36:34.890Z,8.67
2023-03-22T02:39:42.376Z,8.66
2023-03-22T02:42:39.949Z,8.64
2023-03-22T02:45:35.058Z,8.63
2023-03-22T02:48:19.076Z,8.64
2023-03-22T02:51:26.394Z,8.62
2023-03-22T02:54:18.782Z,8.61
2023-03-22T02:57:01.039Z,8.61
2023-03-22T02:59:32.117Z,8.60
2023-03-22T03:02:03.879Z,8.59
2023-03-22T03:04:36.721Z,8.58
2023-03-22T03:07:09.542Z,8.57
2023-03-22T03:09:41.976Z,8.55
2023-03-22T03:12:34.350Z,8.51
2023-03-22T03:15:02.496Z,8.47
2023-03-22T03:17:46.351Z,8.41
2023-03-22T03:20:30.262Z,8.37
2023-03-22T03:23:01.634Z,8.32
2023-03-22T03:25:43.716Z,8.27
2023-03-22T03:28:23.210Z,8.22
2023-03-22T03:31:09.468Z,8.19
2023-03-22T03:33:53.309Z,8.17
2023-03-22T03:36:24.765Z,8.14
2023-03-22T03:38:56.257Z,8.12
2023-03-22T03:41:30.987Z,8.12
2023-03-22T03:44:00.160Z,8.11
2023-03-22T03:46:29.462Z,8.09
2023-03-22T03:48:58.847Z,8.09
2023-03-22T03:51:28.450Z,8.09
2023-03-22T03:53:56.973Z,8.09
2023-03-22T03:56:25.620Z,8.08
2023-03-22T03:58:54.716Z,8.07
2023-03-22T04:01:24.322Z,8.07
2023-03-22T04:04:15.493Z,8.07
2023-03-22T04:06:59.251Z,8.08
2023-03-22T04:09:32.881Z,8.08
2023-03-22T04:12:21.535Z,8.08
2023-03-22T04:15:12.269Z,8.06
2023-03-22T04:17:42.150Z,8.05
2023-03-22T04:20:12.723Z,8.04
2023-03-22T04:22:41.878Z,8.01
2023-03-22T04:25:13.614Z,7.99
2023-03-22T04:27:51.540Z,7.95
2023-03-22T04:30:21.763Z,7.92
2023-03-22T04:33:08.693Z,7.92
2023-03-22T04:35:57.493Z,7.89
2023-03-22T04:38:34.618Z,7.88
2023-03-22T04:41:03.407Z,7.87
2023-03-22T04:43:39.482Z,7.86
2023-03-22T04:46:13.048Z,7.85
2023-03-22T04:49:04.485Z,7.84
2023-03-22T04:51:33.583Z,7.86
2023-03-22T04:54:14.468Z,7.89
2023-03-22T04:56:43.453Z,7.89
2023-03-22T04:59:13.361Z,7.88
2023-03-22T05:01:42.812Z,7.87
2023-03-22T05:04:18.785Z,7.86
2023-03-22T05:06:48.023Z,7.88
2023-03-22T05:09:24.596Z,7.90
2023-03-22T05:11:54.586Z,7.89
2023-03-22T05:14:27.867Z,7.85
2023-03-22T05:16:56.490Z,7.86
2023-03-22T05:19:25.282Z,7.88
2023-03-22T05:21:58.663Z,7.89
2023-03-22T05:24:47.646Z,7.90
2023-03-22T05:27:31.467Z,7.90
2023-03-22T05:30:19.008Z,7.90
2023-03-22T05:32:51.992Z,7.93
2023-03-22T05:35:20.430Z,7.96
2023-03-22T05:37:53.056Z,7.97
2023-03-22T05:40:21.844Z,7.97
2023-03-22T05:42:50.442Z,7.97
2023-03-22T05:45:23.214Z,7.97
2023-03-22T05:48:00.068Z,7.99
2023-03-22T05:50:28.887Z,7.99
2023-03-22T05:52:57.523Z,8.01
2023-03-22T05:55:46.326Z,8.05
2023-03-22T05:58:19.330Z,8.06
2023-03-22T06:00:51.910Z,8.04
2023-03-22T06:03:26.553Z,8.06
2023-03-22T06:05:58.593Z,8.09
2023-03-22T06:08:41.502Z,8.11
2023-03-22T06:11:09.892Z,8.12
2023-03-22T06:13:38.574Z,8.16
2023-03-22T06:16:08.164Z,8.20
2023-03-22T06:18:36.663Z,8.23
2023-03-22T06:21:09.771Z,8.28
2023-03-22T06:23:38.847Z,8.32
2023-03-22T06:26:09.582Z,8.34
2023-03-22T06:28:38.159Z,8.37
2023-03-22T06:31:10.560Z,8.41
2023-03-22T06:33:54.793Z,8.49
2023-03-22T06:36:32.169Z,8.56
2023-03-22T06:39:27.275Z,8.62
2023-03-22T06:41:55.560Z,8.63
2023-03-22T06:44:24.234Z,8.64
2023-03-22T06:46:52.741Z,8.67
2023-03-22T06:49:44.061Z,8.68
2023-03-22T06:52:17.238Z,8.71
2023-03-22T06:54:46.216Z,8.73
2023-03-22T06:57:14.389Z,8.74
2023-03-22T06:59:42.777Z,8.73
2023-03-22T07:02:14.222Z,8.76
2023-03-22T07:04:46.778Z,8.80
2023-03-22T07:07:16.101Z,8.85
2023-03-22T07:09:44.595Z,8.89
2023-03-22T07:12:14.210Z,8.96
2023-03-22T07:14:43.084Z,9.02
2023-03-22T07:17:34.090Z,9.04
2023-03-22T07:20:04.115Z,9.11
2023-03-22T07:22:33.008Z,9.21
2023-03-22T07:25:01.946Z,9.22
2023-03-22T07:27:32.631Z,9.26
2023-03-22T07:30:01.648Z,9.31
2023-03-22T07:32:30.159Z,9.36
2023-03-22T07:35:07.284Z,9.41
2023-03-22T07:37:35.893Z,9.42
2023-03-22T07:40:12.645Z,9.46
2023-03-22T07:42:41.029Z,9.53
2023-03-22T07:45:41.666Z,9.63
2023-03-22T07:48:31.370Z,9.75
2023-03-22T07:51:16.210Z,9.82
2023-03-22T07:53:45.205Z,9.86
2023-03-22T07:56:14.136Z,9.87
2023-03-22T07:58:42.407Z,9.89
2023-03-22T08:01:11.163Z,9.90
2023-03-22T08:03:59.409Z,9.87
2023-03-22T08:06:37.061Z,9.82
2023-03-22T08:09:05.589Z,9.78
2023-03-22T08:11:33.763Z,9.74
2023-03-22T08:14:02.042Z,9.75
2023-03-22T08:16:31.956Z,9.77
2023-03-22T08:19:01.255Z,9.76
2023-03-22T08:21:30.659Z,9.76
2023-03-22T08:23:59.954Z,9.78
2023-03-22T08:26:40.625Z,9.77
2023-03-22T08:29:18.423Z,9.74
2023-03-22T08:31:48.407Z,9.72
2023-03-22T08:34:17.028Z,9.73
2023-03-22T08:36:46.945Z,9.75
2023-03-22T08:39:15.470Z,9.76
2023-03-22T08:42:07.049Z,9.81
2023-03-22T08:44:37.190Z,9.88
2023-03-22T08:47:05.958Z,9.94
2023-03-22T08:49:34.434Z,10.03
2023-03-22T08:52:09.066Z,10.11
2023-03-22T08:55:10.412Z,10.20
2023-03-22T08:57:59.235Z,10.27
2023-03-22T09:00:47.819Z,10.32
2023-03-22T09:03:43.950Z,10.35
2023-03-22T09:06:14.366Z,10.38
2023-03-22T09:08:43.684Z,10.42
2023-03-22T09:11:17.280Z,10.47
2023-03-22T09:13:48.433Z,10.53
2023-03-22T09:16:18.413Z,10.53
2023-03-22T09:18:47.443Z,10.52
2023-03-22T09:21:22.067Z,10.50
2023-03-22T09:23:57.896Z,10.48
2023-03-22T09:26:38.291Z,10.44
2023-03-22T09:29:09.111Z,10.45
2023-03-22T09:31:37.918Z,10.45
2023-03-22T09:34:18.068Z,10.51
2023-03-22T09:36:47.771Z,10.59
2023-03-22T09:39:18.808Z,10.66
2023-03-22T09:41:59.677Z,10.70
2023-03-22T09:44:47.007Z,10.75
2023-03-22T09:47:30.814Z,10.79
2023-03-22T09:50:14.039Z,10.80
2023-03-22T09:52:43.837Z,10.81
2023-03-22T09:55:39.748Z,10.83
2023-03-22T09:58:27.870Z,10.89
2023-03-22T10:01:12.811Z,10.92
2023-03-22T10:03:47.363Z,11.00
2023-03-22T10:06:19.641Z,11.08
2023-03-22T10:09:17.830Z,11.13
2023-03-22T10:12:11.886Z,11.20
2023-03-22T10:14:51.820Z,11.21
2023-03-22T10:17:26.151Z,11.20
2023-03-22T10:20:12.673Z,11.19
2023-03-22T10:22:43.853Z,11.23
2023-03-22T10:25:19.343Z,11.28
2023-03-22T10:27:50.895Z,11.33
2023-03-22T10:30:30.313Z,11.43
2023-03-22T10:33:04.820Z,11.51
2023-03-22T10:35:33.118Z,11.62
2023-03-22T10:38:05.243Z,11.72
2023-03-22T10:40:35.763Z,11.82
2023-03-22T10:43:11.886Z,11.91
2023-03-22T10:45:40.753Z,11.96
2023-03-22T10:48:29.963Z,11.95
2023-03-22T10:50:59.484Z,11.99
2023-03-22T10:53:37.505Z,12.04
2023-03-22T10:56:11.414Z,12.06
2023-03-22T10:58:39.641Z,12.08
2023-03-22T11:01:11.041Z,12.13
2023-03-22T11:03:45.265Z,12.17
2023-03-22T11:06:32.999Z,12.21
2023-03-22T11:09:12.171Z,12.25
2023-03-22T11:11:56.502Z,12.24
2023-03-22T11:14:31.297Z,12.22
2023-03-22T11:17:08.131Z,12.20
2023-03-22T11:19:39.463Z,12.14
2023-03-22T11:22:16.715Z,12.09
2023-03-22T11:24:47.102Z,12.00
2023-03-22T11:27:26.427Z,11.93
2023-03-22T11:29:58.697Z,11.92
2023-03-22T11:32:35.483Z,11.90
2023-03-22T11:35:13.394Z,11.88
2023-03-22T11:38:02.444Z,11.88
2023-03-22T11:40:34.100Z,11.89
2023-03-22T11:43:17.437Z,11.89
2023-03-22T11:45:48.564Z,11.92
2023-03-22T11:48:27.397Z,11.95
2023-03-22T11:51:04.774Z,11.97
2023-03-22T11:53:35.931Z,12.00
2023-03-22T11:56:07.813Z,12.02
2023-03-22T11:58:56.647Z,12.02
2023-03-22T12:01:43.458Z,12.07
2023-03-22T12:04:18.285Z,12.12
2023-03-22T12:06:47.900Z,12.17
2023-03-22T12:09:45.032Z,12.18
2023-03-22T12:12:31.512Z,12.15
2023-03-22T12:15:21.236Z,12.16
2023-03-22T12:18:26.787Z,12.14
2023-03-22T12:20:56.086Z,12.19
2023-03-22T12:23:28.152Z,12.24
2023-03-22T12:26:12.004Z,12.22
2023-03-22T12:28:46.931Z,12.25
2023-03-22T12:31:22.754Z,12.30
2023-03-22T12:33:54.380Z,12.35
2023-03-22T12:36:34.287Z,12.32
2023-03-22T12:39:07.169Z,12.28
2023-03-22T12:41:42.818Z,12.19
2023-03-22T12:44:17.683Z,12.14
2023-03-22T12:46:53.846Z,12.09
2023-03-22T12:49:49.023Z,12.05
2023-03-22T12:52:32.050Z,12.04
2023-03-22T12:55:10.712Z,12.06
2023-03-22T12:57:38.835Z,12.12
2023-03-22T13:00:16.035Z,12.14
2023-03-22T13:03:17.752Z,12.15
2023-03-22T13:05:48.864Z,12.18
2023-03-22T13:08:22.543Z,12.21
2023-03-22T13:11:03.461Z,12.19
2023-03-22T13:13:40.077Z,12.15
2023-03-22T13:16:09.443Z,12.10
2023-03-22T13:18:58.488Z,12.09
2023-03-22T13:21:30.112Z,12.13
2023-03-22T13:24:01.343Z,12.13
2023-03-22T13:26:47.955Z,12.10
2023-03-22T13:29:24.827Z,12.08
2023-03-22T13:32:21.266Z,12.07
2023-03-22T13:34:53.200Z,12.06
2023-03-22T13:37:31.716Z,12.05
2023-03-22T13:40:02.503Z,11.98
2023-03-22T13:42:37.094Z,11.87
2023-03-22T13:45:27.604Z,11.76
2023-03-22T13:48:29.683Z,11.70
2023-03-22T13:51:11.074Z,11.62
2023-03-22T13:53:43.893Z,11.57
2023-03-22T13:56:13.751Z,11.50
2023-03-22T13:58:53.295Z,11.44
2023-03-22T14:01:57.649Z,11.38
2023-03-22T14:04:39.539Z,11.34
2023-03-22T14:07:28.996Z,11.32
2023-03-22T14:10:12.648Z,11.30
2023-03-22T14:13:03.122Z,11.29
2023-03-22T14:15:45.343Z,11.30
2023-03-22T14:18:30.643Z,11.28
2023-03-22T14:21:13.314Z,11.25
